sensor_id;sensor_type;location;lat;lon;timestamp;P1;durP1;ratioP1;P2;durP2;ratioP2
46491;SDS011;32206;51.446;6.792;2022-12-18T00:01:43;16.55;;;10.60;;
46491;SDS011;32206;51.446;6.792;2022-12-18T00:04:14;14.88;;;10.38;;
46491;SDS011;32206;51.446;6.792;2022-12-18T00:06:44;17.33;;;9.48;;
46491;SDS011;32206;51.446;6.792;2022-12-18T00:09:10;11.77;;;8.50;;
46491;SDS011;32206;51.446;6.792;2022-12-18T00:11:36;14.48;;;8.65;;
46491;SDS011;32206;51.446;6.792;2022-12-18T00:14:01;14.45;;;9.20;;
46491;SDS011;32206;51.446;6.792;2022-12-18T00:16:27;18.50;;;8.23;;
46491;SDS011;32206;51.446;6.792;2022-12-18T00:18:55;16.30;;;9.20;;
46491;SDS011;32206;51.446;6.792;2022-12-18T00:21:21;12.25;;;7.88;;
46491;SDS011;32206;51.446;6.792;2022-12-18T00:23:50;12.95;;;8.68;;
46491;SDS011;32206;51.446;6.792;2022-12-18T00:26:18;19.33;;;11.07;;
46491;SDS011;32206;51.446;6.792;2022-12-18T00:28:48;24.92;;;15.70;;
46491;SDS011;32206;51.446;6.792;2022-12-18T00:31:16;14.35;;;9.60;;
46491;SDS011;32206;51.446;6.792;2022-12-18T00:33:44;15.23;;;8.38;;
46491;SDS011;32206;51.446;6.792;2022-12-18T00:36:11;13.52;;;8.35;;
46491;SDS011;32206;51.446;6.792;2022-12-18T00:38:36;10.48;;;7.35;;
46491;SDS011;32206;51.446;6.792;2022-12-18T00:41:02;13.88;;;8.73;;
46491;SDS011;32206;51.446;6.792;2022-12-18T00:43:28;15.52;;;9.15;;
46491;SDS011;32206;51.446;6.792;2022-12-18T00:45:54;17.17;;;8.32;;
46491;SDS011;32206;51.446;6.792;2022-12-18T00:48:19;13.88;;;8.63;;
46491;SDS011;32206;51.446;6.792;2022-12-18T00:50:46;11.60;;;8.05;;
46491;SDS011;32206;51.446;6.792;2022-12-18T00:53:12;15.73;;;9.18;;
46491;SDS011;32206;51.446;6.792;2022-12-18T00:55:41;12.00;;;8.00;;
46491;SDS011;32206;51.446;6.792;2022-12-18T00:58:07;16.38;;;9.38;;
46491;SDS011;32206;51.446;6.792;2022-12-18T01:00:33;13.65;;;8.50;;
46491;SDS011;32206;51.446;6.792;2022-12-18T01:02:59;15.40;;;8.43;;
46491;SDS011;32206;51.446;6.792;2022-12-18T01:05:24;16.50;;;9.00;;
46491;SDS011;32206;51.446;6.792;2022-12-18T01:07:50;14.25;;;8.88;;
46491;SDS011;32206;51.446;6.792;2022-12-18T01:10:16;15.75;;;9.88;;
46491;SDS011;32206;51.446;6.792;2022-12-18T01:12:42;13.98;;;8.77;;
46491;SDS011;32206;51.446;6.792;2022-12-18T01:15:08;14.75;;;8.07;;
46491;SDS011;32206;51.446;6.792;2022-12-18T01:17:35;11.02;;;8.20;;
46491;SDS011;32206;51.446;6.792;2022-12-18T01:20:00;10.05;;;7.53;;
46491;SDS011;32206;51.446;6.792;2022-12-18T01:22:26;13.00;;;7.72;;
46491;SDS011;32206;51.446;6.792;2022-12-18T01:24:52;12.27;;;7.88;;
46491;SDS011;32206;51.446;6.792;2022-12-18T01:27:17;11.85;;;7.93;;
46491;SDS011;32206;51.446;6.792;2022-12-18T01:29:43;12.07;;;8.25;;
46491;SDS011;32206;51.446;6.792;2022-12-18T01:32:09;9.80;;;7.95;;
46491;SDS011;32206;51.446;6.792;2022-12-18T01:34:35;12.57;;;8.70;;
46491;SDS011;32206;51.446;6.792;2022-12-18T01:37:04;10.52;;;7.78;;
46491;SDS011;32206;51.446;6.792;2022-12-18T01:39:30;13.05;;;8.15;;
46491;SDS011;32206;51.446;6.792;2022-12-18T01:41:57;10.40;;;6.82;;
46491;SDS011;32206;51.446;6.792;2022-12-18T01:50:58;11.98;;;6.40;;
46491;SDS011;32206;51.446;6.792;2022-12-18T01:53:18;9.63;;;6.63;;
46491;SDS011;32206;51.446;6.792;2022-12-18T01:55:47;9.85;;;6.18;;
46491;SDS011;32206;51.446;6.792;2022-12-18T01:58:18;13.15;;;7.90;;
46491;SDS011;32206;51.446;6.792;2022-12-18T02:00:48;14.68;;;6.93;;
46491;SDS011;32206;51.446;6.792;2022-12-18T02:03:13;7.95;;;6.82;;
46491;SDS011;32206;51.446;6.792;2022-12-18T02:08:33;15.10;;;7.68;;
46491;SDS011;32206;51.446;6.792;2022-12-18T02:16:45;10.85;;;6.95;;
46491;SDS011;32206;51.446;6.792;2022-12-18T02:25:02;10.02;;;6.13;;
46491;SDS011;32206;51.446;6.792;2022-12-18T02:27:39;10.85;;;6.55;;
46491;SDS011;32206;51.446;6.792;2022-12-18T02:30:09;11.43;;;6.57;;
46491;SDS011;32206;51.446;6.792;2022-12-18T02:32:37;11.13;;;8.18;;
46491;SDS011;32206;51.446;6.792;2022-12-18T02:35:11;9.88;;;6.93;;
46491;SDS011;32206;51.446;6.792;2022-12-18T02:37:41;10.85;;;7.38;;
46491;SDS011;32206;51.446;6.792;2022-12-18T02:40:09;8.85;;;6.63;;
46491;SDS011;32206;51.446;6.792;2022-12-18T02:42:37;11.73;;;7.03;;
46491;SDS011;32206;51.446;6.792;2022-12-18T02:45:03;9.40;;;6.95;;
46491;SDS011;32206;51.446;6.792;2022-12-18T02:47:29;12.35;;;6.88;;
46491;SDS011;32206;51.446;6.792;2022-12-18T02:54:55;10.13;;;7.22;;
46491;SDS011;32206;51.446;6.792;2022-12-18T02:59:56;10.80;;;6.33;;
46491;SDS011;32206;51.446;6.792;2022-12-18T03:05:22;13.55;;;6.97;;
46491;SDS011;32206;51.446;6.792;2022-12-18T03:08:00;11.18;;;6.80;;
46491;SDS011;32206;51.446;6.792;2022-12-18T03:10:28;11.27;;;6.20;;
46491;SDS011;32206;51.446;6.792;2022-12-18T03:13:06;10.80;;;6.68;;
46491;SDS011;32206;51.446;6.792;2022-12-18T03:15:39;11.60;;;7.28;;
46491;SDS011;32206;51.446;6.792;2022-12-18T03:18:33;13.52;;;7.70;;
46491;SDS011;32206;51.446;6.792;2022-12-18T03:21:03;11.55;;;8.02;;
46491;SDS011;32206;51.446;6.792;2022-12-18T03:23:33;11.68;;;7.38;;
46491;SDS011;32206;51.446;6.792;2022-12-18T03:26:06;9.60;;;6.75;;
46491;SDS011;32206;51.446;6.792;2022-12-18T03:28:37;10.55;;;6.85;;
46491;SDS011;32206;51.446;6.792;2022-12-18T03:31:07;10.45;;;7.82;;
46491;SDS011;32206;51.446;6.792;2022-12-18T03:34:11;13.15;;;7.57;;
46491;SDS011;32206;51.446;6.792;2022-12-18T03:36:30;9.70;;;6.60;;
46491;SDS011;32206;51.446;6.792;2022-12-18T03:38:56;6.95;;;6.03;;
46491;SDS011;32206;51.446;6.792;2022-12-18T03:44:21;12.13;;;6.95;;
46491;SDS011;32206;51.446;6.792;2022-12-18T03:52:11;7.45;;;5.70;;
46491;SDS011;32206;51.446;6.792;2022-12-18T03:54:41;8.57;;;5.70;;
46491;SDS011;32206;51.446;6.792;2022-12-18T03:57:19;6.30;;;5.68;;
46491;SDS011;32206;51.446;6.792;2022-12-18T03:59:48;9.57;;;5.50;;
46491;SDS011;32206;51.446;6.792;2022-12-18T04:02:17;9.45;;;6.00;;
46491;SDS011;32206;51.446;6.792;2022-12-18T04:04:44;7.63;;;5.32;;
46491;SDS011;32206;51.446;6.792;2022-12-18T04:07:12;7.88;;;5.43;;
46491;SDS011;32206;51.446;6.792;2022-12-18T04:09:39;9.30;;;5.95;;
46491;SDS011;32206;51.446;6.792;2022-12-18T04:12:08;9.60;;;5.47;;
46491;SDS011;32206;51.446;6.792;2022-12-18T04:14:34;9.48;;;6.38;;
46491;SDS011;32206;51.446;6.792;2022-12-18T04:17:00;9.40;;;5.85;;
46491;SDS011;32206;51.446;6.792;2022-12-18T04:19:27;10.80;;;6.70;;
46491;SDS011;32206;51.446;6.792;2022-12-18T04:21:53;9.13;;;5.50;;
46491;SDS011;32206;51.446;6.792;2022-12-18T04:24:18;8.05;;;5.45;;
46491;SDS011;32206;51.446;6.792;2022-12-18T04:26:44;6.90;;;5.82;;
46491;SDS011;32206;51.446;6.792;2022-12-18T04:29:10;8.63;;;5.30;;
46491;SDS011;32206;51.446;6.792;2022-12-18T04:31:36;9.63;;;5.50;;
46491;SDS011;32206;51.446;6.792;2022-12-18T04:34:02;6.47;;;4.45;;
46491;SDS011;32206;51.446;6.792;2022-12-18T04:36:28;6.43;;;4.75;;
46491;SDS011;32206;51.446;6.792;2022-12-18T04:38:54;7.85;;;5.82;;
46491;SDS011;32206;51.446;6.792;2022-12-18T04:41:19;8.50;;;4.72;;
46491;SDS011;32206;51.446;6.792;2022-12-18T04:43:45;6.60;;;4.63;;
46491;SDS011;32206;51.446;6.792;2022-12-18T04:46:13;7.10;;;5.30;;
46491;SDS011;32206;51.446;6.792;2022-12-18T04:48:39;7.68;;;4.72;;
46491;SDS011;32206;51.446;6.792;2022-12-18T04:51:05;6.80;;;4.90;;
46491;SDS011;32206;51.446;6.792;2022-12-18T04:53:32;8.48;;;5.40;;
46491;SDS011;32206;51.446;6.792;2022-12-18T04:56:08;6.95;;;4.80;;
46491;SDS011;32206;51.446;6.792;2022-12-18T04:58:35;5.35;;;4.28;;
46491;SDS011;32206;51.446;6.792;2022-12-18T05:01:02;8.02;;;5.50;;
46491;SDS011;32206;51.446;6.792;2022-12-18T05:03:28;5.22;;;4.20;;
46491;SDS011;32206;51.446;6.792;2022-12-18T05:05:54;7.93;;;4.55;;
46491;SDS011;32206;51.446;6.792;2022-12-18T05:08:19;5.43;;;4.55;;
46491;SDS011;32206;51.446;6.792;2022-12-18T05:10:45;20.92;;;11.52;;
46491;SDS011;32206;51.446;6.792;2022-12-18T05:13:11;16.20;;;9.10;;
46491;SDS011;32206;51.446;6.792;2022-12-18T05:15:36;10.40;;;6.50;;
46491;SDS011;32206;51.446;6.792;2022-12-18T05:18:02;7.05;;;5.55;;
46491;SDS011;32206;51.446;6.792;2022-12-18T05:20:28;7.13;;;5.05;;
46491;SDS011;32206;51.446;6.792;2022-12-18T05:22:54;5.32;;;4.60;;
46491;SDS011;32206;51.446;6.792;2022-12-18T05:25:20;8.52;;;5.95;;
46491;SDS011;32206;51.446;6.792;2022-12-18T05:27:46;6.57;;;4.82;;
46491;SDS011;32206;51.446;6.792;2022-12-18T05:30:13;6.63;;;5.05;;
46491;SDS011;32206;51.446;6.792;2022-12-18T05:32:38;5.78;;;4.75;;
46491;SDS011;32206;51.446;6.792;2022-12-18T05:35:06;6.05;;;4.50;;
46491;SDS011;32206;51.446;6.792;2022-12-18T05:37:32;6.40;;;4.60;;
46491;SDS011;32206;51.446;6.792;2022-12-18T05:39:58;5.57;;;4.30;;
46491;SDS011;32206;51.446;6.792;2022-12-18T05:42:24;6.28;;;4.88;;
46491;SDS011;32206;51.446;6.792;2022-12-18T05:44:50;5.90;;;4.22;;
46491;SDS011;32206;51.446;6.792;2022-12-18T05:47:15;7.22;;;4.60;;
46491;SDS011;32206;51.446;6.792;2022-12-18T05:49:41;6.85;;;5.22;;
46491;SDS011;32206;51.446;6.792;2022-12-18T05:52:06;6.07;;;5.13;;
46491;SDS011;32206;51.446;6.792;2022-12-18T05:54:32;6.95;;;5.05;;
46491;SDS011;32206;51.446;6.792;2022-12-18T05:56:58;8.30;;;4.97;;
46491;SDS011;32206;51.446;6.792;2022-12-18T05:59:23;6.22;;;5.22;;
46491;SDS011;32206;51.446;6.792;2022-12-18T06:01:49;7.82;;;5.05;;
46491;SDS011;32206;51.446;6.792;2022-12-18T06:04:15;8.57;;;4.82;;
46491;SDS011;32206;51.446;6.792;2022-12-18T06:06:40;5.35;;;4.78;;
46491;SDS011;32206;51.446;6.792;2022-12-18T06:09:06;8.50;;;5.78;;
46491;SDS011;32206;51.446;6.792;2022-12-18T06:11:34;9.18;;;5.97;;
46491;SDS011;32206;51.446;6.792;2022-12-18T06:14:02;7.32;;;5.03;;
46491;SDS011;32206;51.446;6.792;2022-12-18T06:16:29;7.70;;;5.43;;
46491;SDS011;32206;51.446;6.792;2022-12-18T06:18:58;12.57;;;5.95;;
46491;SDS011;32206;51.446;6.792;2022-12-18T06:21:25;8.48;;;5.47;;
46491;SDS011;32206;51.446;6.792;2022-12-18T06:23:52;8.98;;;5.85;;
46491;SDS011;32206;51.446;6.792;2022-12-18T06:26:18;9.00;;;5.93;;
46491;SDS011;32206;51.446;6.792;2022-12-18T06:28:43;8.63;;;5.55;;
46491;SDS011;32206;51.446;6.792;2022-12-18T06:31:09;9.85;;;6.00;;
46491;SDS011;32206;51.446;6.792;2022-12-18T06:33:35;7.38;;;5.97;;
46491;SDS011;32206;51.446;6.792;2022-12-18T06:36:02;14.10;;;7.25;;
46491;SDS011;32206;51.446;6.792;2022-12-18T06:38:33;6.95;;;5.75;;
46491;SDS011;32206;51.446;6.792;2022-12-18T06:41:00;11.57;;;7.28;;
46491;SDS011;32206;51.446;6.792;2022-12-18T06:43:25;15.50;;;8.98;;
46491;SDS011;32206;51.446;6.792;2022-12-18T06:45:51;20.35;;;11.38;;
46491;SDS011;32206;51.446;6.792;2022-12-18T06:48:25;34.67;;;17.15;;
46491;SDS011;32206;51.446;6.792;2022-12-18T06:50:50;33.08;;;18.60;;
46491;SDS011;32206;51.446;6.792;2022-12-18T06:53:16;33.60;;;18.92;;
46491;SDS011;32206;51.446;6.792;2022-12-18T06:55:41;39.42;;;20.55;;
46491;SDS011;32206;51.446;6.792;2022-12-18T06:58:07;40.22;;;20.88;;
46491;SDS011;32206;51.446;6.792;2022-12-18T07:00:33;39.20;;;22.15;;
46491;SDS011;32206;51.446;6.792;2022-12-18T07:02:59;46.42;;;24.85;;
46491;SDS011;32206;51.446;6.792;2022-12-18T07:05:24;45.80;;;23.63;;
46491;SDS011;32206;51.446;6.792;2022-12-18T07:07:50;45.38;;;24.17;;
46491;SDS011;32206;51.446;6.792;2022-12-18T07:10:15;47.38;;;26.83;;
46491;SDS011;32206;51.446;6.792;2022-12-18T07:12:41;44.92;;;23.13;;
46491;SDS011;32206;51.446;6.792;2022-12-18T07:15:07;50.08;;;25.50;;
46491;SDS011;32206;51.446;6.792;2022-12-18T07:17:33;48.75;;;25.50;;
46491;SDS011;32206;51.446;6.792;2022-12-18T07:19:58;41.88;;;22.63;;
46491;SDS011;32206;51.446;6.792;2022-12-18T07:22:25;48.28;;;26.33;;
46491;SDS011;32206;51.446;6.792;2022-12-18T07:24:50;46.42;;;23.75;;
46491;SDS011;32206;51.446;6.792;2022-12-18T07:27:16;47.25;;;24.85;;
46491;SDS011;32206;51.446;6.792;2022-12-18T07:29:42;43.33;;;23.55;;
46491;SDS011;32206;51.446;6.792;2022-12-18T07:32:07;44.10;;;22.23;;
46491;SDS011;32206;51.446;6.792;2022-12-18T07:34:33;46.53;;;24.42;;
46491;SDS011;32206;51.446;6.792;2022-12-18T07:36:59;43.10;;;23.20;;
46491;SDS011;32206;51.446;6.792;2022-12-18T07:39:25;45.35;;;22.98;;
46491;SDS011;32206;51.446;6.792;2022-12-18T07:41:50;42.05;;;23.92;;
46491;SDS011;32206;51.446;6.792;2022-12-18T07:44:42;41.75;;;24.42;;
46491;SDS011;32206;51.446;6.792;2022-12-18T07:47:08;45.33;;;23.92;;
46491;SDS011;32206;51.446;6.792;2022-12-18T07:49:33;52.83;;;26.13;;
46491;SDS011;32206;51.446;6.792;2022-12-18T07:51:59;50.53;;;24.20;;
46491;SDS011;32206;51.446;6.792;2022-12-18T07:54:25;46.45;;;23.10;;
46491;SDS011;32206;51.446;6.792;2022-12-18T07:56:50;45.00;;;24.17;;
46491;SDS011;32206;51.446;6.792;2022-12-18T07:59:17;43.30;;;24.40;;
46491;SDS011;32206;51.446;6.792;2022-12-18T08:01:42;48.20;;;26.17;;
46491;SDS011;32206;51.446;6.792;2022-12-18T08:04:08;44.75;;;23.27;;
46491;SDS011;32206;51.446;6.792;2022-12-18T08:06:33;45.38;;;25.02;;
46491;SDS011;32206;51.446;6.792;2022-12-18T08:08:59;48.20;;;24.42;;
46491;SDS011;32206;51.446;6.792;2022-12-18T08:11:25;41.78;;;24.38;;
46491;SDS011;32206;51.446;6.792;2022-12-18T08:13:52;41.33;;;22.58;;
46491;SDS011;32206;51.446;6.792;2022-12-18T08:16:19;49.65;;;23.75;;
46491;SDS011;32206;51.446;6.792;2022-12-18T08:18:45;43.47;;;22.92;;
46491;SDS011;32206;51.446;6.792;2022-12-18T08:21:12;46.15;;;22.73;;
46491;SDS011;32206;51.446;6.792;2022-12-18T08:23:38;46.25;;;25.85;;
46491;SDS011;32206;51.446;6.792;2022-12-18T08:26:04;48.42;;;25.00;;
46491;SDS011;32206;51.446;6.792;2022-12-18T08:28:30;48.20;;;25.48;;
46491;SDS011;32206;51.446;6.792;2022-12-18T08:30:56;50.10;;;25.73;;
46491;SDS011;32206;51.446;6.792;2022-12-18T08:33:22;44.00;;;24.20;;
46491;SDS011;32206;51.446;6.792;2022-12-18T08:35:48;48.92;;;25.05;;
46491;SDS011;32206;51.446;6.792;2022-12-18T08:38:13;40.63;;;23.50;;
46491;SDS011;32206;51.446;6.792;2022-12-18T08:40:39;45.53;;;24.33;;
46491;SDS011;32206;51.446;6.792;2022-12-18T08:43:04;51.83;;;26.48;;
46491;SDS011;32206;51.446;6.792;2022-12-18T08:45:48;46.95;;;24.70;;
46491;SDS011;32206;51.446;6.792;2022-12-18T08:48:14;43.20;;;22.45;;
46491;SDS011;32206;51.446;6.792;2022-12-18T08:50:40;43.03;;;24.65;;
46491;SDS011;32206;51.446;6.792;2022-12-18T08:53:06;42.38;;;23.65;;
46491;SDS011;32206;51.446;6.792;2022-12-18T08:55:31;43.83;;;23.05;;
46491;SDS011;32206;51.446;6.792;2022-12-18T08:57:57;40.65;;;22.55;;
46491;SDS011;32206;51.446;6.792;2022-12-18T09:00:23;44.13;;;25.25;;
46491;SDS011;32206;51.446;6.792;2022-12-18T09:02:48;44.08;;;21.77;;
46491;SDS011;32206;51.446;6.792;2022-12-18T09:05:14;35.53;;;22.25;;
46491;SDS011;32206;51.446;6.792;2022-12-18T09:07:40;42.88;;;22.83;;
46491;SDS011;32206;51.446;6.792;2022-12-18T09:10:05;35.50;;;20.80;;
46491;SDS011;32206;51.446;6.792;2022-12-18T09:12:31;34.65;;;20.20;;
46491;SDS011;32206;51.446;6.792;2022-12-18T09:14:57;34.13;;;20.70;;
46491;SDS011;32206;51.446;6.792;2022-12-18T09:17:22;38.42;;;21.08;;
46491;SDS011;32206;51.446;6.792;2022-12-18T09:19:48;29.85;;;18.80;;
46491;SDS011;32206;51.446;6.792;2022-12-18T09:22:14;29.67;;;17.73;;
46491;SDS011;32206;51.446;6.792;2022-12-18T09:24:40;33.97;;;19.30;;
46491;SDS011;32206;51.446;6.792;2022-12-18T09:27:05;38.28;;;21.10;;
46491;SDS011;32206;51.446;6.792;2022-12-18T09:29:31;31.33;;;16.85;;
46491;SDS011;32206;51.446;6.792;2022-12-18T09:31:57;28.15;;;15.82;;
46491;SDS011;32206;51.446;6.792;2022-12-18T09:34:23;25.65;;;15.02;;
46491;SDS011;32206;51.446;6.792;2022-12-18T09:36:48;20.90;;;13.00;;
46491;SDS011;32206;51.446;6.792;2022-12-18T09:39:14;19.00;;;12.60;;
46491;SDS011;32206;51.446;6.792;2022-12-18T09:44:11;15.63;;;8.80;;
46491;SDS011;32206;51.446;6.792;2022-12-18T09:46:41;13.82;;;7.93;;
46491;SDS011;32206;51.446;6.792;2022-12-18T09:49:13;12.73;;;6.90;;
46491;SDS011;32206;51.446;6.792;2022-12-18T09:51:49;10.75;;;7.47;;
46491;SDS011;32206;51.446;6.792;2022-12-18T09:54:21;13.02;;;6.75;;
46491;SDS011;32206;51.446;6.792;2022-12-18T09:56:50;8.38;;;5.20;;
46491;SDS011;32206;51.446;6.792;2022-12-18T10:01:47;7.18;;;5.05;;
46491;SDS011;32206;51.446;6.792;2022-12-18T10:04:13;5.63;;;4.35;;
46491;SDS011;32206;51.446;6.792;2022-12-18T10:06:41;7.60;;;4.22;;
46491;SDS011;32206;51.446;6.792;2022-12-18T10:09:20;6.28;;;4.18;;
46491;SDS011;32206;51.446;6.792;2022-12-18T10:15:08;4.85;;;3.83;;
46491;SDS011;32206;51.446;6.792;2022-12-18T10:20:17;6.07;;;3.80;;
46491;SDS011;32206;51.446;6.792;2022-12-18T10:27:58;8.00;;;4.22;;
46491;SDS011;32206;51.446;6.792;2022-12-18T10:30:32;5.55;;;3.85;;
46491;SDS011;32206;51.446;6.792;2022-12-18T10:33:01;7.20;;;4.22;;
46491;SDS011;32206;51.446;6.792;2022-12-18T10:35:28;4.72;;;3.75;;
46491;SDS011;32206;51.446;6.792;2022-12-18T10:40:54;6.32;;;4.35;;
46491;SDS011;32206;51.446;6.792;2022-12-18T10:48:25;6.80;;;4.45;;
46491;SDS011;32206;51.446;6.792;2022-12-18T10:50:52;8.25;;;4.75;;
46491;SDS011;32206;51.446;6.792;2022-12-18T10:53:23;7.03;;;4.63;;
46491;SDS011;32206;51.446;6.792;2022-12-18T10:55:51;7.20;;;4.25;;
46491;SDS011;32206;51.446;6.792;2022-12-18T11:03:29;7.50;;;5.18;;
46491;SDS011;32206;51.446;6.792;2022-12-18T11:06:02;5.15;;;4.28;;
46491;SDS011;32206;51.446;6.792;2022-12-18T11:08:33;8.27;;;4.85;;
46491;SDS011;32206;51.446;6.792;2022-12-18T11:10:59;9.82;;;4.57;;
46491;SDS011;32206;51.446;6.792;2022-12-18T11:13:26;7.75;;;4.40;;
46491;SDS011;32206;51.446;6.792;2022-12-18T11:15:54;8.52;;;4.70;;
46491;SDS011;32206;51.446;6.792;2022-12-18T11:18:22;5.55;;;4.28;;
46491;SDS011;32206;51.446;6.792;2022-12-18T11:20:56;5.60;;;3.97;;
46491;SDS011;32206;51.446;6.792;2022-12-18T11:23:30;8.13;;;4.63;;
46491;SDS011;32206;51.446;6.792;2022-12-18T11:25:59;7.40;;;4.65;;
46491;SDS011;32206;51.446;6.792;2022-12-18T11:28:37;7.20;;;4.40;;
46491;SDS011;32206;51.446;6.792;2022-12-18T11:31:25;4.47;;;4.07;;
46491;SDS011;32206;51.446;6.792;2022-12-18T11:36:44;6.93;;;4.90;;
46491;SDS011;32206;51.446;6.792;2022-12-18T11:39:34;8.10;;;4.45;;
46491;SDS011;32206;51.446;6.792;2022-12-18T11:42:12;5.93;;;5.05;;
46491;SDS011;32206;51.446;6.792;2022-12-18T11:44:53;5.18;;;4.55;;
46491;SDS011;32206;51.446;6.792;2022-12-18T11:47:40;7.43;;;5.43;;
46491;SDS011;32206;51.446;6.792;2022-12-18T11:50:13;11.43;;;5.18;;
46491;SDS011;32206;51.446;6.792;2022-12-18T11:52:43;11.02;;;4.57;;
46491;SDS011;32206;51.446;6.792;2022-12-18T11:55:13;4.90;;;3.90;;
46491;SDS011;32206;51.446;6.792;2022-12-18T11:57:50;7.10;;;4.57;;
46491;SDS011;32206;51.446;6.792;2022-12-18T12:00:27;6.82;;;4.60;;
46491;SDS011;32206;51.446;6.792;2022-12-18T12:03:06;6.82;;;5.05;;
46491;SDS011;32206;51.446;6.792;2022-12-18T12:06:01;6.82;;;4.78;;
46491;SDS011;32206;51.446;6.792;2022-12-18T12:14:12;7.40;;;5.60;;
46491;SDS011;32206;51.446;6.792;2022-12-18T12:16:57;6.30;;;5.22;;
46491;SDS011;32206;51.446;6.792;2022-12-18T12:33:32;7.72;;;5.15;;
46491;SDS011;32206;51.446;6.792;2022-12-18T12:38:46;6.20;;;4.88;;
46491;SDS011;32206;51.446;6.792;2022-12-18T12:41:23;7.78;;;6.00;;
46491;SDS011;32206;51.446;6.792;2022-12-18T12:44:15;9.75;;;4.95;;
46491;SDS011;32206;51.446;6.792;2022-12-18T12:46:47;7.95;;;4.70;;
46491;SDS011;32206;51.446;6.792;2022-12-18T12:49:15;8.85;;;6.15;;
46491;SDS011;32206;51.446;6.792;2022-12-18T12:51:48;8.35;;;5.97;;
46491;SDS011;32206;51.446;6.792;2022-12-18T12:54:23;10.73;;;6.93;;
46491;SDS011;32206;51.446;6.792;2022-12-18T12:57:05;8.15;;;5.80;;
46491;SDS011;32206;51.446;6.792;2022-12-18T13:00:02;8.77;;;5.93;;
46491;SDS011;32206;51.446;6.792;2022-12-18T13:05:24;7.55;;;5.03;;
46491;SDS011;32206;51.446;6.792;2022-12-18T13:07:59;8.55;;;5.45;;
46491;SDS011;32206;51.446;6.792;2022-12-18T13:10:35;9.13;;;5.90;;
46491;SDS011;32206;51.446;6.792;2022-12-18T13:15:39;11.82;;;6.63;;
46491;SDS011;32206;51.446;6.792;2022-12-18T13:20:44;8.30;;;6.47;;
46491;SDS011;32206;51.446;6.792;2022-12-18T13:31:01;8.98;;;6.70;;
46491;SDS011;32206;51.446;6.792;2022-12-18T13:46:55;10.93;;;7.35;;
46491;SDS011;32206;51.446;6.792;2022-12-18T13:52:22;11.13;;;6.93;;
46491;SDS011;32206;51.446;6.792;2022-12-18T13:54:54;12.95;;;7.95;;
46491;SDS011;32206;51.446;6.792;2022-12-18T13:59:51;17.67;;;9.65;;
46491;SDS011;32206;51.446;6.792;2022-12-18T14:02:19;13.77;;;8.90;;
46491;SDS011;32206;51.446;6.792;2022-12-18T14:04:48;13.52;;;8.95;;
46491;SDS011;32206;51.446;6.792;2022-12-18T14:09:54;12.77;;;8.15;;
46491;SDS011;32206;51.446;6.792;2022-12-18T14:12:26;13.85;;;7.70;;
46491;SDS011;32206;51.446;6.792;2022-12-18T14:15:34;13.80;;;7.88;;
46491;SDS011;32206;51.446;6.792;2022-12-18T14:18:02;12.32;;;8.23;;
46491;SDS011;32206;51.446;6.792;2022-12-18T14:20:34;11.10;;;7.93;;
46491;SDS011;32206;51.446;6.792;2022-12-18T14:23:00;13.13;;;7.35;;
46491;SDS011;32206;51.446;6.792;2022-12-18T14:25:27;12.60;;;7.80;;
46491;SDS011;32206;51.446;6.792;2022-12-18T14:28:09;15.40;;;8.88;;
46491;SDS011;32206;51.446;6.792;2022-12-18T14:30:39;11.70;;;8.05;;
46491;SDS011;32206;51.446;6.792;2022-12-18T14:35:38;15.82;;;7.97;;
46491;SDS011;32206;51.446;6.792;2022-12-18T14:38:22;16.25;;;8.98;;
46491;SDS011;32206;51.446;6.792;2022-12-18T14:40:53;13.20;;;8.32;;
46491;SDS011;32206;51.446;6.792;2022-12-18T14:43:23;12.27;;;7.57;;
46491;SDS011;32206;51.446;6.792;2022-12-18T14:45:49;16.77;;;9.38;;
46491;SDS011;32206;51.446;6.792;2022-12-18T14:48:21;14.00;;;9.13;;
46491;SDS011;32206;51.446;6.792;2022-12-18T14:50:56;14.43;;;8.88;;
46491;SDS011;32206;51.446;6.792;2022-12-18T14:53:31;15.25;;;8.52;;
46491;SDS011;32206;51.446;6.792;2022-12-18T14:56:02;15.35;;;8.90;;
46491;SDS011;32206;51.446;6.792;2022-12-18T14:58:35;16.17;;;9.23;;
46491;SDS011;32206;51.446;6.792;2022-12-18T15:01:01;15.07;;;8.68;;
46491;SDS011;32206;51.446;6.792;2022-12-18T15:03:26;12.43;;;8.88;;
46491;SDS011;32206;51.446;6.792;2022-12-18T15:05:52;16.48;;;8.90;;
46491;SDS011;32206;51.446;6.792;2022-12-18T15:08:28;14.63;;;8.98;;
46491;SDS011;32206;51.446;6.792;2022-12-18T15:11:03;13.80;;;8.80;;
46491;SDS011;32206;51.446;6.792;2022-12-18T15:13:48;12.43;;;8.60;;
46491;SDS011;32206;51.446;6.792;2022-12-18T15:16:14;16.10;;;9.27;;
46491;SDS011;32206;51.446;6.792;2022-12-18T15:18:41;13.75;;;8.68;;
46491;SDS011;32206;51.446;6.792;2022-12-18T15:21:11;13.43;;;7.70;;
46491;SDS011;32206;51.446;6.792;2022-12-18T15:26:08;16.52;;;10.32;;
46491;SDS011;32206;51.446;6.792;2022-12-18T15:28:37;16.40;;;8.98;;
46491;SDS011;32206;51.446;6.792;2022-12-18T15:31:04;14.20;;;8.77;;
46491;SDS011;32206;51.446;6.792;2022-12-18T15:33:37;21.70;;;9.55;;
46491;SDS011;32206;51.446;6.792;2022-12-18T15:36:11;17.17;;;10.25;;
46491;SDS011;32206;51.446;6.792;2022-12-18T15:38:41;12.98;;;9.00;;
46491;SDS011;32206;51.446;6.792;2022-12-18T15:41:15;13.82;;;9.35;;
46491;SDS011;32206;51.446;6.792;2022-12-18T15:43:45;16.27;;;8.88;;
46491;SDS011;32206;51.446;6.792;2022-12-18T15:46:13;16.02;;;9.07;;
46491;SDS011;32206;51.446;6.792;2022-12-18T15:48:42;15.55;;;9.18;;
46491;SDS011;32206;51.446;6.792;2022-12-18T15:51:22;18.10;;;10.13;;
46491;SDS011;32206;51.446;6.792;2022-12-18T15:53:49;14.85;;;9.05;;
46491;SDS011;32206;51.446;6.792;2022-12-18T15:56:18;19.85;;;10.45;;
46491;SDS011;32206;51.446;6.792;2022-12-18T15:59:04;16.65;;;9.65;;
46491;SDS011;32206;51.446;6.792;2022-12-18T16:01:40;17.15;;;10.80;;
46491;SDS011;32206;51.446;6.792;2022-12-18T16:04:11;19.48;;;10.48;;
46491;SDS011;32206;51.446;6.792;2022-12-18T16:06:38;18.65;;;10.45;;
46491;SDS011;32206;51.446;6.792;2022-12-18T16:09:06;17.08;;;10.13;;
46491;SDS011;32206;51.446;6.792;2022-12-18T16:11:32;20.98;;;9.18;;
46491;SDS011;32206;51.446;6.792;2022-12-18T16:16:43;28.90;;;10.88;;
46491;SDS011;32206;51.446;6.792;2022-12-18T16:19:13;17.60;;;10.95;;
46491;SDS011;32206;51.446;6.792;2022-12-18T16:21:39;20.52;;;11.48;;
46491;SDS011;32206;51.446;6.792;2022-12-18T16:24:04;25.05;;;10.80;;
46491;SDS011;32206;51.446;6.792;2022-12-18T16:26:30;20.88;;;11.43;;
46491;SDS011;32206;51.446;6.792;2022-12-18T16:28:56;18.70;;;10.88;;
46491;SDS011;32206;51.446;6.792;2022-12-18T16:31:21;18.88;;;10.48;;
46491;SDS011;32206;51.446;6.792;2022-12-18T16:33:47;20.83;;;11.40;;
46491;SDS011;32206;51.446;6.792;2022-12-18T16:36:13;22.00;;;11.60;;
46491;SDS011;32206;51.446;6.792;2022-12-18T16:38:38;17.77;;;11.23;;
46491;SDS011;32206;51.446;6.792;2022-12-18T16:41:19;22.08;;;11.23;;
46491;SDS011;32206;51.446;6.792;2022-12-18T16:43:57;20.98;;;11.90;;
46491;SDS011;32206;51.446;6.792;2022-12-18T16:46:23;22.20;;;11.55;;
46491;SDS011;32206;51.446;6.792;2022-12-18T16:48:48;23.42;;;12.57;;
46491;SDS011;32206;51.446;6.792;2022-12-18T16:51:17;22.55;;;11.73;;
46491;SDS011;32206;51.446;6.792;2022-12-18T16:53:42;23.45;;;12.82;;
46491;SDS011;32206;51.446;6.792;2022-12-18T16:56:15;20.38;;;11.02;;
46491;SDS011;32206;51.446;6.792;2022-12-18T16:58:40;24.58;;;11.75;;
46491;SDS011;32206;51.446;6.792;2022-12-18T17:01:07;20.95;;;12.65;;
46491;SDS011;32206;51.446;6.792;2022-12-18T17:03:34;22.02;;;13.15;;
46491;SDS011;32206;51.446;6.792;2022-12-18T17:06:05;24.92;;;12.38;;